Time;durP1;ratioP1;P1;durP2;ratioP2;P2;SDS_P1;SDS_P2;PMS_P1;PMS_P2;Temp;Humidity;BMP_temperature;BMP_pressure;BME280_temperature;BME280_humidity;BME280_pressure;Samples;Min_cycle;Max_cycle;Signal;HPM_P1;HPM_P2
2021/12/26 00:01:35;;;;;;;22.10;12.32;;;;;;;-10.45;86.49;100991.34;7397167;19;20377;-68
2021/12/26 00:04:05;;;;;;;19.48;11.02;;;;;;;-10.47;86.55;100993.78;7395368;19;20031;-68
2021/12/26 00:06:33;;;;;;;15.98;9.73;;;;;;;-10.50;86.73;100989.38;7395299;19;20051;-69
2021/12/26 00:09:03;;;;;;;19.63;11.10;;;;;;;-10.52;86.77;100985.84;7396889;19;20027;-68
2021/12/26 00:11:32;;;;;;;17.73;9.90;;;;;;;-10.54;86.66;100989.06;7396941;19;20022;-68
2021/12/26 00:14:00;;;;;;;20.48;10.60;;;;;;;-10.61;86.91;100975.09;7395101;19;20085;-68
2021/12/26 00:16:31;;;;;;;19.83;10.85;;;;;;;-10.59;86.73;100991.28;7394544;19;20532;-68
2021/12/26 00:18:59;;;;;;;19.40;11.30;;;;;;;-10.61;86.97;100992.84;7397146;19;20039;-70
2021/12/26 00:21:27;;;;;;;18.30;9.73;;;;;;;-10.62;86.78;100993.63;7394978;19;20028;-69
2021/12/26 00:23:57;;;;;;;21.00;11.18;;;;;;;-10.62;86.87;100993.63;7396587;19;20027;-68
2021/12/26 00:26:25;;;;;;;22.00;9.88;;;;;;;-10.62;86.78;100995.31;7394642;19;20021;-69
2021/12/26 00:28:55;;;;;;;19.27;10.13;;;;;;;-10.63;86.90;100991.88;7394708;19;20031;-69
2021/12/26 00:31:24;;;;;;;19.83;9.52;;;;;;;-10.63;86.75;100989.31;7395926;19;20014;-68
2021/12/26 00:33:55;;;;;;;17.17;10.20;;;;;;;-10.65;86.93;100983.28;7395815;19;20487;-69
2021/12/26 00:36:24;;;;;;;21.13;10.80;;;;;;;-10.64;86.64;100979.94;7394411;19;20109;-69
2021/12/26 00:38:55;;;;;;;21.58;12.93;;;;;;;-10.66;86.68;100979.00;7395686;19;20482;-69
2021/12/26 00:41:26;;;;;;;33.83;15.63;;;;;;;-10.66;86.69;100981.53;7395506;19;20023;-68
2021/12/26 00:43:55;;;;;;;38.72;17.40;;;;;;;-10.68;86.75;100983.06;7394681;19;20027;-69
2021/12/26 00:46:23;;;;;;;31.42;16.02;;;;;;;-10.72;86.85;100981.97;7394079;19;20025;-69
2021/12/26 00:48:57;;;;;;;37.83;16.27;;;;;;;-10.74;86.92;100975.03;7394191;19;20444;-69
2021/12/26 00:51:25;;;;;;;23.83;11.65;;;;;;;-10.70;87.05;100971.94;7396354;19;20389;-69
2021/12/26 00:53:53;;;;;;;22.17;11.77;;;;;;;-10.72;87.01;100976.91;7394101;19;20021;-68
2021/12/26 00:56:25;;;;;;;17.83;9.93;;;;;;;-10.74;86.93;100975.03;7393994;19;20106;-74
2021/12/26 00:58:54;;;;;;;21.63;9.45;;;;;;;-10.76;86.73;100982.56;7396009;19;20018;-70
2021/12/26 01:01:22;;;;;;;13.20;8.50;;;;;;;-10.79;86.87;100968.78;7395633;19;20039;-69
2021/12/26 01:03:50;;;;;;;13.80;7.70;;;;;;;-10.82;86.92;100964.38;7395444;19;20019;-69
2021/12/26 01:06:21;;;;;;;15.88;9.25;;;;;;;-10.87;86.92;100960.66;7393651;19;20014;-69
2021/12/26 01:08:52;;;;;;;16.77;8.40;;;;;;;-10.87;86.71;100964.06;7394069;19;20019;-69
2021/12/26 01:11:34;;;;;;;13.15;7.32;;;;;;;-10.90;87.02;100970.63;7395099;19;20483;-69
2021/12/26 01:14:04;;;;;;;15.40;7.97;;;;;;;-10.92;87.00;100967.09;7393678;19;20022;-69
2021/12/26 01:16:33;;;;;;;13.57;7.60;;;;;;;-10.95;86.73;100966.84;7394771;19;20036;-68
2021/12/26 01:19:07;;;;;;;11.80;7.93;;;;;;;-10.95;86.76;100977.00;7395008;19;20037;-69
2021/12/26 01:21:38;;;;;;;13.63;7.80;;;;;;;-11.00;86.85;100976.69;7395526;19;20033;-69
2021/12/26 01:24:09;;;;;;;12.15;6.53;;;;;;;-11.03;86.92;100990.03;7392630;19;20382;-69
2021/12/26 01:26:38;;;;;;;16.38;8.50;;;;;;;-11.05;86.60;100981.44;7395372;19;20022;-69
2021/12/26 01:29:07;;;;;;;18.95;7.45;;;;;;;-11.08;86.74;100981.25;7394849;19;20026;-69
2021/12/26 01:31:36;;;;;;;18.55;8.52;;;;;;;-11.11;86.76;100983.53;7392992;19;20032;-69
2021/12/26 01:34:06;;;;;;;15.77;8.23;;;;;;;-11.14;86.83;100985.88;7394639;19;20031;-69
2021/12/26 01:36:38;;;;;;;11.18;7.22;;;;;;;-11.16;86.73;100983.25;7393048;19;20032;-69
2021/12/26 01:39:08;;;;;;;14.57;7.22;;;;;;;-11.19;86.92;100979.63;7392727;19;20014;-69
2021/12/26 01:41:40;;;;;;;15.52;8.45;;;;;;;-11.20;86.82;100982.91;7393680;19;20034;-69
2021/12/26 01:44:11;;;;;;;14.02;7.03;;;;;;;-11.23;87.00;100980.16;7401793;19;20018;-69
2021/12/26 01:46:41;;;;;;;13.25;7.65;;;;;;;-11.24;86.81;100988.56;7402200;19;20019;-69
2021/12/26 01:49:14;;;;;;;14.68;6.97;;;;;;;-11.26;86.81;100990.97;7401828;19;20369;-69
2021/12/26 01:51:46;;;;;;;12.38;6.43;;;;;;;-11.27;86.90;100990.84;7402124;19;20365;-68
2021/12/26 01:54:27;;;;;;;11.88;6.55;;;;;;;-11.31;87.00;100998.25;7401736;19;20039;-69
2021/12/26 01:56:56;;;;;;;11.02;6.07;;;;;;;-11.34;86.72;100987.88;7399292;19;20491;-69
2021/12/26 01:59:25;;;;;;;11.13;6.43;;;;;;;-11.34;86.99;100981.97;7401605;19;20014;-69
2021/12/26 02:01:53;;;;;;;11.82;6.50;;;;;;;-11.36;86.84;100984.38;7401169;19;20036;-69
2021/12/26 02:04:21;;;;;;;11.27;7.53;;;;;;;-11.39;86.88;100968.09;7400768;19;20083;-69
2021/12/26 02:06:52;;;;;;;11.75;7.18;;;;;;;-11.37;87.08;100979.19;7400827;19;20479;-69
2021/12/26 02:09:21;;;;;;;14.77;7.55;;;;;;;-11.38;87.06;100978.31;7398830;19;20425;-69
2021/12/26 02:11:49;;;;;;;13.32;6.90;;;;;;;-11.37;86.91;100976.66;7401003;19;20047;-69
2021/12/26 02:14:17;;;;;;;11.30;7.45;;;;;;;-11.36;86.95;100980.97;7402496;19;20039;-69
2021/12/26 02:16:48;;;;;;;9.27;5.97;;;;;;;-11.37;86.90;100977.56;7397914;19;20398;-68
2021/12/26 02:19:17;;;;;;;11.82;6.22;;;;;;;-11.38;86.60;100974.91;7401302;19;20034;-69
2021/12/26 02:24:44;;;;;;;11.55;6.97;;;;;;;-11.43;86.93;100982.19;7397638;19;20018;-69
2021/12/26 02:27:32;;;;;;;12.73;8.10;;;;;;;-11.42;86.94;100990.66;7400178;19;20074;-69
2021/12/26 02:30:01;;;;;;;10.98;6.70;;;;;;;-11.43;86.92;100992.31;7397876;19;20050;-69
2021/12/26 02:32:30;;;;;;;14.15;6.60;;;;;;;-11.42;87.12;100981.41;7400480;19;20028;-69
2021/12/26 02:34:59;;;;;;;14.43;7.35;;;;;;;-11.41;86.93;100984.81;7399340;19;20020;-69
2021/12/26 02:37:30;;;;;;;13.40;6.95;;;;;;;-11.50;86.73;100974.91;7398169;19;20066;-69
2021/12/26 02:39:58;;;;;;;10.18;6.65;;;;;;;-11.47;86.74;100988.69;7397988;19;20014;-69
2021/12/26 02:42:39;;;;;;;12.55;7.22;;;;;;;-11.48;87.04;100983.50;7396562;19;20058;-69
2021/12/26 02:45:08;;;;;;;12.60;6.60;;;;;;;-11.49;86.72;100981.75;7399016;19;20027;-69
2021/12/26 02:47:38;;;;;;;10.18;6.55;;;;;;;-11.53;86.72;100979.78;7399527;19;20023;-69
2021/12/26 02:50:13;;;;;;;11.60;7.80;;;;;;;-11.55;86.80;100987.28;7398117;19;20028;-69
2021/12/26 02:52:46;;;;;;;12.48;7.53;;;;;;;-11.56;86.91;100990.56;7399225;19;20504;-69
2021/12/26 02:55:17;;;;;;;11.90;7.30;;;;;;;-11.57;86.85;100993.88;7395528;19;20430;-69
2021/12/26 02:57:50;;;;;;;16.27;8.45;;;;;;;-11.59;86.66;100989.47;7397122;19;20022;-69
2021/12/26 03:00:24;;;;;;;10.43;7.32;;;;;;;-11.63;86.73;100986.69;7397494;19;20015;-69
2021/12/26 03:02:55;;;;;;;10.85;7.05;;;;;;;-11.65;86.88;100989.91;7398977;19;20482;-69
2021/12/26 03:05:26;;;;;;;12.80;6.97;;;;;;;-11.65;86.89;100994.97;7398130;19;20022;-69
2021/12/26 03:07:58;;;;;;;10.95;6.85;;;;;;;-11.67;86.78;100994.00;7397237;19;20018;-69
2021/12/26 03:10:27;;;;;;;14.38;8.35;;;;;;;-11.71;86.56;100985.28;7397158;19;20023;-69
2021/12/26 03:12:58;;;;;;;14.10;8.13;;;;;;;-11.73;86.81;100980.91;7398808;19;20015;-69
2021/12/26 03:15:30;;;;;;;11.55;7.78;;;;;;;-11.75;86.79;100990.00;7396589;19;20018;-69
2021/12/26 03:17:59;;;;;;;12.93;8.80;;;;;;;-11.76;86.83;100984.09;7396608;19;20014;-69
2021/12/26 03:20:31;;;;;;;12.48;8.23;;;;;;;-11.77;86.78;100979.78;7398615;19;20027;-69
2021/12/26 03:23:03;;;;;;;14.43;8.63;;;;;;;-11.77;86.91;100984.84;7396595;19;20018;-69
2021/12/26 03:25:32;;;;;;;13.10;8.75;;;;;;;-11.77;86.98;100984.84;7397404;19;20022;-69
2021/12/26 03:28:02;;;;;;;18.73;11.70;;;;;;;-11.75;87.01;100982.41;7396307;19;20015;-69
2021/12/26 03:30:34;;;;;;;20.27;11.15;;;;;;;-11.74;86.97;100991.78;7398281;19;20023;-69
2021/12/26 03:33:03;;;;;;;18.15;11.68;;;;;;;-11.73;86.97;100986.81;7398640;19;20022;-69
2021/12/26 03:35:34;;;;;;;19.65;11.68;;;;;;;-11.72;87.01;100992.78;7396401;19;20366;-69
2021/12/26 03:38:07;;;;;;;20.50;11.98;;;;;;;-11.69;86.88;101000.59;7395991;19;20019;-69
2021/12/26 03:40:35;;;;;;;17.75;11.60;;;;;;;-11.68;86.94;100989.69;7397802;19;20035;-69
2021/12/26 03:43:05;;;;;;;21.20;11.82;;;;;;;-11.68;87.00;100990.56;7395824;19;20014;-69
2021/12/26 03:45:34;;;;;;;29.77;14.73;;;;;;;-11.69;86.99;100983.75;7396434;19;20018;-69
2021/12/26 03:48:02;;;;;;;43.83;22.38;;;;;;;-11.65;86.98;100987.38;7396243;19;20029;-69
2021/12/26 03:50:32;;;;;;;46.13;19.77;;;;;;;-11.65;87.06;100982.31;7397677;19;20018;-69
2021/12/26 03:53:02;;;;;;;46.97;19.92;;;;;;;-11.62;87.28;100982.53;7397494;19;20077;-69
2021/12/26 03:55:32;;;;;;;39.17;19.42;;;;;;;-11.60;87.17;100977.56;7396251;19;20022;-69
2021/12/26 03:58:01;;;;;;;26.30;14.80;;;;;;;-11.59;87.25;100980.22;7396052;19;20026;-69
2021/12/26 04:00:31;;;;;;;24.98;13.98;;;;;;;-11.57;87.25;100976.16;7395534;19;20007;-69
2021/12/26 04:03:00;;;;;;;25.33;14.45;;;;;;;-11.58;87.10;100976.91;7397625;19;20011;-69
2021/12/26 04:05:30;;;;;;;22.52;12.45;;;;;;;-11.56;87.19;100985.50;7394759;19;20018;-69
2021/12/26 04:07:58;;;;;;;22.38;13.57;;;;;;;-11.56;87.27;100967.78;7398068;19;20031;-70
2021/12/26 04:10:26;;;;;;;21.83;13.68;;;;;;;-11.56;87.35;100972.84;7401700;19;20035;-70
2021/12/26 04:12:58;;;;;;;20.55;12.18;;;;;;;-11.55;87.35;100968.66;7398251;19;20018;-69
2021/12/26 04:15:27;;;;;;;19.88;12.70;;;;;;;-11.55;87.33;100968.66;7396115;19;20025;-70
2021/12/26 04:17:58;;;;;;;19.55;11.32;;;;;;;-11.57;87.46;100965.13;7394938;19;20046;-69
2021/12/26 04:20:29;;;;;;;19.73;11.30;;;;;;;-11.56;87.40;100970.31;7397193;19;20074;-69
2021/12/26 04:22:59;;;;;;;21.63;11.98;;;;;;;-11.55;87.33;100971.19;7396235;19;20487;-69
2021/12/26 04:25:28;;;;;;;20.08;11.90;;;;;;;-11.61;87.36;100961.53;7394325;19;20363;-70
2021/12/26 04:27:59;;;;;;;20.75;11.55;;;;;;;-11.55;87.44;100966.13;7396425;19;20027;-69
2021/12/26 04:30:38;;;;;;;21.52;12.10;;;;;;;-11.57;87.36;100963.50;7396852;19;20023;-70
2021/12/26 04:33:07;;;;;;;18.33;10.23;;;;;;;-11.62;87.33;100968.22;7396723;19;20018;-69
2021/12/26 04:35:35;;;;;;;19.92;11.23;;;;;;;-11.62;87.36;100975.81;7394093;19;20483;-69
2021/12/26 04:38:03;;;;;;;19.00;10.30;;;;;;;-11.62;87.18;100970.75;7394740;19;20022;-69
2021/12/26 04:40:31;;;;;;;13.23;8.85;;;;;;;-11.66;87.28;100975.50;7394530;19;20220;-70
2021/12/26 04:43:17;;;;;;;13.57;8.38;;;;;;;-11.69;87.29;100983.75;7392998;19;20417;-69
2021/12/26 04:45:45;;;;;;;14.68;8.68;;;;;;;-11.73;87.09;100983.44;7395279;19;20039;-69
2021/12/26 04:48:13;;;;;;;14.23;8.57;;;;;;;-11.77;87.22;100977.25;7395658;19;20018;-69
2021/12/26 04:50:41;;;;;;;14.32;8.82;;;;;;;-11.82;87.14;100959.19;7395289;19;20509;-69
2021/12/26 04:53:10;;;;;;;17.20;10.18;;;;;;;-11.86;86.99;100956.34;7394035;19;20022;-69
2021/12/26 04:55:38;;;;;;;13.48;9.60;;;;;;;-11.86;87.18;100956.34;7394582;19;20027;-69
2021/12/26 04:58:09;;;;;;;14.25;8.82;;;;;;;-11.89;87.37;100953.59;7394204;19;20460;-69
2021/12/26 05:00:37;;;;;;;19.33;9.68;;;;;;;-11.91;87.47;100955.16;7396146;19;20039;-69
2021/12/26 05:03:07;;;;;;;22.98;9.38;;;;;;;-11.95;87.20;100954.91;7395562;19;20022;-69
2021/12/26 05:05:36;;;;;;;15.75;8.88;;;;;;;-11.97;87.01;100956.47;7393878;19;20018;-69
2021/12/26 05:08:05;;;;;;;14.27;9.27;;;;;;;-11.98;87.17;100948.78;7395274;19;20030;-69
2021/12/26 05:10:33;;;;;;;18.67;8.80;;;;;;;-12.02;87.11;100947.69;7395275;19;20010;-69
2021/12/26 05:13:03;;;;;;;15.73;9.10;;;;;;;-12.04;87.00;100948.34;7395168;19;20018;-68
2021/12/26 05:15:34;;;;;;;16.15;9.88;;;;;;;-12.07;86.86;100955.72;7393235;19;20109;-70
2021/12/26 05:18:02;;;;;;;18.80;9.63;;;;;;;-12.12;86.90;100950.31;7397151;19;20035;-69
2021/12/26 05:20:31;;;;;;;14.85;8.80;;;;;;;-12.16;86.85;100948.34;7401931;19;20401;-69
2021/12/26 05:23:01;;;;;;;13.88;9.45;;;;;;;-12.19;86.82;100943.06;7402531;19;20015;-70
2021/12/26 05:25:30;;;;;;;15.45;9.77;;;;;;;-12.21;86.72;100945.47;7401052;19;20018;-69
2021/12/26 05:27:58;;;;;;;24.23;11.57;;;;;;;-12.21;87.15;100950.53;7402378;19;20036;-69
2021/12/26 05:30:28;;;;;;;17.98;11.27;;;;;;;-12.22;87.04;100958.00;7399273;19;20022;-69
2021/12/26 05:32:59;;;;;;;18.55;10.55;;;;;;;-12.26;87.07;100956.03;7402178;19;20106;-69
2021/12/26 05:35:27;;;;;;;18.40;9.57;;;;;;;-12.27;86.98;100954.25;7400745;19;20022;-69
2021/12/26 05:37:56;;;;;;;15.65;9.70;;;;;;;-12.32;86.84;100954.81;7400271;19;20115;-69
2021/12/26 05:40:24;;;;;;;12.75;8.38;;;;;;;-12.34;86.91;100956.34;7401983;19;20015;-69
2021/12/26 05:42:53;;;;;;;14.95;8.93;;;;;;;-12.36;86.91;100950.28;7400301;19;20027;-69
2021/12/26 05:45:21;;;;;;;14.98;9.30;;;;;;;-12.38;86.81;100941.72;7400336;19;20036;-69
2021/12/26 05:47:50;;;;;;;16.63;10.50;;;;;;;-12.39;86.92;100947.53;7398642;19;20433;-69
2021/12/26 05:50:23;;;;;;;16.63;9.68;;;;;;;-12.40;86.76;100947.44;7398583;19;20390;-69
2021/12/26 05:52:51;;;;;;;19.02;11.27;;;;;;;-12.40;87.00;100947.44;7398636;19;20421;-69
2021/12/26 05:55:20;;;;;;;19.15;11.18;;;;;;;-12.40;86.88;100948.31;7398770;19;20036;-69
2021/12/26 05:57:49;;;;;;;16.75;10.48;;;;;;;-12.41;87.05;100936.41;7398609;19;20018;-69
2021/12/26 06:00:20;;;;;;;21.00;11.90;;;;;;;-12.41;86.71;100936.41;7401433;19;20027;-69
2021/12/26 06:02:50;;;;;;;18.13;12.02;;;;;;;-12.41;86.88;100941.47;7401709;19;20019;-69
2021/12/26 06:05:22;;;;;;;21.38;12.10;;;;;;;-12.44;86.99;100943.78;7399806;19;20018;-69
2021/12/26 06:07:51;;;;;;;21.38;13.00;;;;;;;-12.42;87.07;100947.31;7398103;19;20496;-69
2021/12/26 06:10:19;;;;;;;27.98;17.38;;;;;;;-12.41;86.97;100945.66;7401082;19;20010;-69
2021/12/26 06:12:47;;;;;;;25.27;14.93;;;;;;;-12.41;86.89;100946.53;7401588;19;20035;-69
2021/12/26 06:15:16;;;;;;;24.80;14.20;;;;;;;-12.40;87.00;100938.19;7398154;19;20014;-69
2021/12/26 06:17:44;;;;;;;22.52;13.07;;;;;;;-12.39;86.96;100934.91;7397869;19;20030;-69
2021/12/26 06:20:16;;;;;;;20.92;12.60;;;;;;;-12.38;87.01;100940.81;7400325;19;20412;-69
2021/12/26 06:22:48;;;;;;;21.05;11.82;;;;;;;-12.37;86.97;100935.00;7401079;19;20015;-69
2021/12/26 06:25:17;;;;;;;23.40;13.13;;;;;;;-12.37;87.11;100927.41;7399606;19;20035;-69
2021/12/26 06:27:46;;;;;;;22.48;13.32;;;;;;;-12.36;87.02;100919.06;7400257;19;20018;-69
2021/12/26 06:30:16;;;;;;;21.42;13.27;;;;;;;-12.34;87.19;100923.47;7397726;19;20022;-69
2021/12/26 06:32:45;;;;;;;25.00;13.15;;;;;;;-12.33;87.03;100927.75;7400774;19;20042;-69
2021/12/26 06:35:13;;;;;;;24.17;13.73;;;;;;;-12.32;87.09;100924.47;7397276;19;20387;-69
2021/12/26 06:37:41;;;;;;;23.77;13.93;;;;;;;-12.33;86.96;100925.22;7399070;19;20026;-69
2021/12/26 06:40:14;;;;;;;18.88;12.50;;;;;;;-12.29;87.07;100923.81;7400777;19;20026;-69
2021/12/26 06:42:45;;;;;;;21.98;13.15;;;;;;;-12.29;86.96;100917.09;7399169;19;20088;-68
2021/12/26 06:45:18;;;;;;;20.80;13.30;;;;;;;-12.29;87.04;100932.25;7397586;19;20014;-69
2021/12/26 06:47:54;;;;;;;23.13;13.93;;;;;;;-12.29;87.05;100934.78;7400298;19;20014;-69
2021/12/26 06:50:23;;;;;;;19.88;12.85;;;;;;;-12.30;87.18;100938.09;7397664;19;20512;-69
2021/12/26 06:52:51;;;;;;;19.02;12.70;;;;;;;-12.26;87.20;100940.84;7399172;19;20027;-69
2021/12/26 06:55:22;;;;;;;37.95;18.58;;;;;;;-12.28;87.12;100943.28;7398342;19;20022;-69
2021/12/26 06:57:50;;;;;;;33.70;19.33;;;;;;;-12.27;86.82;100949.22;7398934;19;20026;-69
2021/12/26 07:00:19;;;;;;;29.33;15.90;;;;;;;-12.31;86.65;100949.00;7399358;19;20039;-69
2021/12/26 07:02:48;;;;;;;25.27;14.15;;;;;;;-12.33;86.84;100953.06;7399246;19;20040;-69
2021/12/26 07:05:17;;;;;;;20.80;12.55;;;;;;;-12.36;86.71;100962.06;7398088;19;20035;-69
2021/12/26 07:07:45;;;;;;;20.02;11.93;;;;;;;-12.38;87.09;100954.38;7396856;19;20023;-69
2021/12/26 07:10:14;;;;;;;19.92;12.38;;;;;;;-12.38;87.15;100961.94;7398974;19;20031;-69
2021/12/26 07:12:45;;;;;;;22.85;12.23;;;;;;;-12.38;87.19;100951.84;7396859;19;20022;-69
2021/12/26 07:15:14;;;;;;;18.17;12.65;;;;;;;-12.37;87.36;100948.53;7398800;19;20036;-68
2021/12/26 07:17:43;;;;;;;26.92;13.10;;;;;;;-12.35;87.28;100941.06;7398078;19;20018;-68
2021/12/26 07:20:14;;;;;;;23.95;13.85;;;;;;;-12.39;87.17;100932.38;7398261;19;20471;-69
2021/12/26 07:22:44;;;;;;;21.60;12.70;;;;;;;-12.34;87.06;100947.88;7399080;19;20031;-69
2021/12/26 07:25:13;;;;;;;19.90;13.02;;;;;;;-12.34;87.06;100947.88;7396547;19;20015;-69
2021/12/26 07:27:41;;;;;;;24.38;13.90;;;;;;;-12.35;87.28;100954.56;7396481;19;20015;-69
2021/12/26 07:30:14;;;;;;;21.30;13.48;;;;;;;-12.35;87.14;100959.63;7398380;19;20021;-68
2021/12/26 07:32:42;;;;;;;20.95;13.80;;;;;;;-12.36;87.17;100960.38;7398630;19;20023;-69
2021/12/26 07:35:11;;;;;;;34.75;17.65;;;;;;;-12.35;87.04;100961.28;7396678;19;20475;-68
2021/12/26 07:37:39;;;;;;;29.55;18.92;;;;;;;-12.37;87.00;100965.34;7397997;19;20018;-68
2021/12/26 07:40:09;;;;;;;33.70;20.05;;;;;;;-12.37;87.03;100958.66;7395680;19;20425;-69
2021/12/26 07:42:37;;;;;;;29.48;17.98;;;;;;;-12.37;87.34;100965.34;7395204;19;20019;-69
2021/12/26 07:45:06;;;;;;;29.00;16.58;;;;;;;-12.37;86.98;100971.31;7396691;19;20475;-69
2021/12/26 07:47:37;;;;;;;27.80;15.35;;;;;;;-12.37;87.18;100978.88;7397905;19;20018;-69
2021/12/26 07:50:06;;;;;;;30.02;17.25;;;;;;;-12.36;87.10;100974.69;7398136;19;20006;-69
2021/12/26 07:52:39;;;;;;;29.88;18.02;;;;;;;-12.35;87.18;100969.75;7395622;19;20015;-69
2021/12/26 07:55:10;;;;;;;99.78;41.95;;;;;;;-12.34;87.23;100958.88;7397002;19;20018;-69
2021/12/26 07:57:39;;;;;;;46.13;24.38;;;;;;;-12.31;87.47;100964.16;7395881;19;20047;-69
2021/12/26 08:00:09;;;;;;;33.38;18.58;;;;;;;-12.27;87.33;100965.25;7395468;19;20022;-69
2021/12/26 08:02:40;;;;;;;30.92;18.92;;;;;;;-12.24;87.29;100970.56;7395659;19;20035;-69
2021/12/26 08:05:10;;;;;;;29.20;17.55;;;;;;;-12.21;87.21;100965.69;7395031;19;20511;-69
2021/12/26 08:07:38;;;;;;;31.50;18.80;;;;;;;-12.18;87.39;100965.03;7397094;19;20019;-68
2021/12/26 08:10:07;;;;;;;29.25;18.33;;;;;;;-12.17;87.31;100964.28;7394989;19;20014;-69
2021/12/26 08:12:36;;;;;;;33.63;17.33;;;;;;;-12.13;87.26;100968.78;7395181;19;20014;-69
2021/12/26 08:15:05;;;;;;;44.30;24.50;;;;;;;-12.10;87.23;100976.63;7394990;19;20022;-69
2021/12/26 08:17:35;;;;;;;41.25;23.38;;;;;;;-12.06;87.50;100978.59;7397369;19;20035;-69
2021/12/26 08:20:07;;;;;;;40.67;24.08;;;;;;;-12.02;87.48;100977.16;7398172;19;20015;-69
2021/12/26 08:22:36;;;;;;;35.95;22.00;;;;;;;-11.99;87.46;100970.69;7394705;19;20475;-69
2021/12/26 08:25:06;;;;;;;30.95;19.60;;;;;;;-11.93;87.42;100977.78;7395821;19;20085;-69
2021/12/26 08:27:34;;;;;;;35.05;19.27;;;;;;;-11.88;87.61;100980.66;7395942;19;20479;-68
2021/12/26 08:30:03;;;;;;;33.58;19.15;;;;;;;-11.81;87.73;100985.41;7396251;19;20074;-69
2021/12/26 08:32:34;;;;;;;30.23;17.60;;;;;;;-11.74;87.65;100989.25;7396164;19;20018;-69
2021/12/26 08:35:04;;;;;;;43.90;27.77;;;;;;;-11.70;87.86;100992.13;7394682;19;20018;-69
2021/12/26 08:37:35;;;;;;;40.70;26.98;;;;;;;-11.65;87.86;100990.78;7395943;19;20022;-69
2021/12/26 08:40:03;;;;;;;33.85;20.73;;;;;;;-11.58;87.76;100993.78;7394685;19;20018;-69
2021/12/26 08:42:31;;;;;;;31.30;18.27;;;;;;;-11.53;87.75;100989.91;7395088;19;20033;-69
2021/12/26 08:44:59;;;;;;;33.83;17.45;;;;;;;-11.49;87.68;100992.75;7394136;19;20027;-69
2021/12/26 08:47:28;;;;;;;38.13;18.77;;;;;;;-11.45;87.96;100993.84;7396497;19;20033;-69
2021/12/26 08:49:56;;;;;;;32.53;18.05;;;;;;;-11.37;87.91;100992.75;7393879;19;20036;-69
2021/12/26 08:52:25;;;;;;;31.85;16.83;;;;;;;-11.34;87.85;100997.16;7395322;19;20043;-69
2021/12/26 08:54:55;;;;;;;33.25;18.13;;;;;;;-11.26;88.03;100996.03;7393683;19;20023;-69
2021/12/26 08:57:23;;;;;;;31.65;18.45;;;;;;;-11.20;88.00;100998.13;7396611;19;20011;-69
2021/12/26 08:59:52;;;;;;;34.05;17.85;;;;;;;-11.15;87.96;101001.84;7393231;19;20349;-68
2021/12/26 09:02:20;;;;;;;32.40;17.70;;;;;;;-11.10;88.08;101000.50;7395331;19;20104;-69
2021/12/26 09:04:48;;;;;;;32.33;17.42;;;;;;;-11.05;88.05;100999.19;7394724;19;20023;-69
2021/12/26 09:07:16;;;;;;;33.90;18.02;;;;;;;-10.99;88.12;101001.28;7394891;19;20035;-68
2021/12/26 09:09:46;;;;;;;29.70;16.35;;;;;;;-10.91;88.13;100996.72;7394691;19;20023;-69
2021/12/26 09:12:17;;;;;;;25.30;15.60;;;;;;;-10.86;88.15;100992.84;7395828;19;20053;-69
2021/12/26 09:14:46;;;;;;;29.13;16.05;;;;;;;-10.80;88.21;100995.81;7392797;19;20460;-68
2021/12/26 09:17:15;;;;;;;30.60;16.63;;;;;;;-10.74;88.13;100993.69;7393239;19;20026;-69
2021/12/26 09:19:43;;;;;;;35.30;19.63;;;;;;;-10.69;88.14;100992.34;7393019;19;20022;-68
2021/12/26 09:22:15;;;;;;;32.63;17.50;;;;;;;-10.59;89.36;100996.34;7394841;19;20100;-69
2021/12/26 09:24:44;;;;;;;39.20;19.38;;;;;;;-10.44;89.32;100996.50;7394315;19;20082;-69
2021/12/26 09:27:12;;;;;;;35.22;19.73;;;;;;;-10.29;90.42;100998.28;7394680;19;20036;-69
2021/12/26 09:29:43;;;;;;;32.63;18.63;;;;;;;-10.16;89.13;100995.78;7394426;19;20032;-69
2021/12/26 09:32:12;;;;;;;30.35;18.73;;;;;;;-10.08;88.92;100988.66;7392875;19;20019;-69
2021/12/26 09:34:40;;;;;;;35.13;20.42;;;;;;;-10.01;88.65;100989.19;7393545;19;20014;-69
2021/12/26 09:37:10;;;;;;;34.50;21.52;;;;;;;-9.95;88.84;100985.28;7394073;19;20018;-70
2021/12/26 09:39:40;;;;;;;32.10;20.77;;;;;;;-9.90;88.48;100986.44;7392925;19;20027;-68
2021/12/26 09:42:09;;;;;;;37.65;21.15;;;;;;;-9.85;88.55;100990.16;7396070;19;20041;-70
2021/12/26 09:44:38;;;;;;;33.95;20.40;;;;;;;-9.79;88.62;100987.13;7394790;19;20023;-69
2021/12/26 09:47:10;;;;;;;37.92;19.80;;;;;;;-9.75;88.76;100987.44;7395338;19;20018;-69
2021/12/26 09:49:38;;;;;;;33.60;18.05;;;;;;;-9.69;88.63;100986.94;7394618;19;20021;-69
2021/12/26 09:52:08;;;;;;;24.23;15.55;;;;;;;-9.63;88.73;100991.53;7394237;19;20031;-69
2021/12/26 09:54:37;;;;;;;31.20;16.02;;;;;;;-9.57;88.63;100989.38;7392070;19;20031;-69
2021/12/26 09:57:05;;;;;;;33.10;15.93;;;;;;;-9.54;88.80;100987.91;7393818;19;20039;-67
2021/12/26 09:59:34;;;;;;;29.63;16.30;;;;;;;-9.46;89.02;100987.50;7393055;19;20052;-67
2021/12/26 10:02:13;;;;;;;28.52;14.07;;;;;;;-9.41;88.83;100976.88;7391800;19;20123;-68
2021/12/26 10:04:42;;;;;;;32.35;15.45;;;;;;;-9.34;88.93;100973.94;7398713;19;20078;-68
2021/12/26 10:07:13;;;;;;;30.55;15.95;;;;;;;-9.28;88.83;100970.88;7400983;19;20018;-67
2021/12/26 10:09:43;;;;;;;26.27;15.43;;;;;;;-9.21;88.75;100977.22;7398231;19;20025;-67
2021/12/26 10:12:20;;;;;;;30.92;16.98;;;;;;;-9.15;88.80;100971.63;7400983;19;20492;-68
2021/12/26 10:14:51;;;;;;;29.70;17.60;;;;;;;-9.07;88.96;100972.97;7398437;19;20031;-67
2021/12/26 10:17:26;;;;;;;28.70;17.05;;;;;;;-9.01;88.92;100968.25;7400959;19;20018;-67
2021/12/26 10:20:03;;;;;;;27.80;17.80;;;;;;;-8.95;89.10;100965.22;7398519;19;20078;-67
2021/12/26 10:22:31;;;;;;;32.17;18.08;;;;;;;-8.88;89.06;100969.91;7400747;19;20431;-68
2021/12/26 10:25:00;;;;;;;30.05;16.23;;;;;;;-8.81;89.04;100966.94;7399584;19;20037;-68
2021/12/26 10:27:32;;;;;;;34.22;17.88;;;;;;;-8.74;89.20;100963.09;7397920;19;20019;-67
2021/12/26 10:30:02;;;;;;;31.17;16.98;;;;;;;-8.67;89.15;100965.22;7400858;19;20018;-68
2021/12/26 10:32:37;;;;;;;31.63;16.33;;;;;;;-8.60;89.28;100954.63;7401328;19;20354;-69
2021/12/26 10:35:09;;;;;;;28.45;17.85;;;;;;;-8.52;89.05;100949.97;7399030;19;20036;-69
2021/12/26 10:37:40;;;;;;;24.92;15.40;;;;;;;-8.46;89.31;100955.41;7400305;19;20038;-69
2021/12/26 10:40:12;;;;;;;26.23;14.43;;;;;;;-8.39;89.14;100942.25;7398062;19;20018;-68
2021/12/26 10:42:43;;;;;;;27.08;14.98;;;;;;;-8.31;89.15;100936.69;7398738;19;20429;-68
2021/12/26 10:45:20;;;;;;;25.63;14.90;;;;;;;-8.22;89.28;100938.09;7398729;19;20022;-69
2021/12/26 10:47:54;;;;;;;42.85;22.20;;;;;;;-8.13;89.25;100945.41;7400541;19;20040;-70
2021/12/26 10:50:24;;;;;;;39.25;22.75;;;;;;;-8.06;89.26;100929.69;7400067;19;20027;-69
2021/12/26 10:52:55;;;;;;;36.58;19.98;;;;;;;-7.96;89.37;100922.53;7399605;19;20035;-68
2021/12/26 10:55:31;;;;;;;33.67;18.15;;;;;;;-7.86;89.71;100925.72;7397109;19;20476;-64
2021/12/26 10:58:02;;;;;;;33.17;16.27;;;;;;;-7.76;89.73;100921.09;7401389;19;20019;-64
2021/12/26 11:00:33;;;;;;;25.90;14.95;;;;;;;-7.66;89.52;100932.69;7397099;19;20475;-66
2021/12/26 11:03:06;;;;;;;29.10;14.85;;;;;;;-7.58;89.74;100927.22;7396913;19;20035;-64
2021/12/26 11:05:38;;;;;;;26.08;14.30;;;;;;;-7.49;89.47;100920.84;7397809;19;20137;-64
2021/12/26 11:08:10;;;;;;;25.02;14.30;;;;;;;-7.40;89.55;100914.59;7396555;19;20420;-64
2021/12/26 11:10:41;;;;;;;25.98;13.88;;;;;;;-7.30;89.54;100915.97;7397144;19;20014;-64
2021/12/26 11:13:18;;;;;;;24.48;13.68;;;;;;;-7.22;89.42;100907.03;7399422;19;20031;-65
2021/12/26 11:15:47;;;;;;;28.02;15.18;;;;;;;-7.14;89.38;100907.47;7395169;19;20022;-64
2021/12/26 11:18:20;;;;;;;29.02;16.13;;;;;;;-7.05;89.64;100902.84;7399121;19;20328;-63
2021/12/26 11:20:53;;;;;;;32.17;17.80;;;;;;;-6.97;89.65;100900.69;7397110;19;20018;-63